Time,TemperatureF,DewpointF,PressureIn,WindDirection,WindDirectionDegrees,WindSpeedMPH,WindSpeedGustMPH,Humidity,HourlyPrecipIn,Conditions,Clouds,dailyrainin,SoftwareType,DateUTC
2013-06-14 00:00:00,72.4,40.1,29.70,West,270,0.0,4.0,31,0.00,,---,0.00,VWS V14.00,2013-06-14 07:00:00,
2013-06-14 00:30:00,71.3,42.3,29.69,West,270,0.0,0.0,35,0.00,,---,0.00,VWS V14.00,2013-06-14 07:30:00,
2013-06-14 01:00:00,69.4,41.3,29.68,West,270,0.0,0.0,36,0.00,,---,0.00,VWS V14.00,2013-06-14 08:00:00,
2013-06-14 01:30:00,66.2,42.5,29.68,West,270,0.0,0.0,42,0.00,,---,0.00,VWS V14.00,2013-06-14 08:30:00,
2013-06-14 02:00:00,66.7,44.7,29.68,West,270,0.0,0.0,45,0.00,,---,0.00,VWS V14.00,2013-06-14 09:00:00,
2013-06-14 02:30:00,67.9,47.0,29.69,West,270,0.0,1.0,47,0.00,,---,0.00,VWS V14.00,2013-06-14 09:30:00,
2013-06-14 03:00:00,66.7,47.0,29.68,West,270,0.0,0.0,49,0.00,,---,0.00,VWS V14.00,2013-06-14 10:00:00,
2013-06-14 03:30:00,65.6,47.0,29.68,West,270,0.0,0.0,51,0.00,,---,0.00,VWS V14.00,2013-06-14 10:30:00,
2013-06-14 04:00:00,64.0,46.5,29.68,South,180,0.0,3.0,53,0.00,,---,0.00,VWS V14.00,2013-06-14 11:00:00,
2013-06-14 04:30:00,65.2,45.6,29.69,South,180,0.0,0.0,49,0.00,,---,0.00,VWS V14.00,2013-06-14 11:30:00,
2013-06-14 05:00:00,65.5,47.9,29.69,SSE,158,0.0,2.0,53,0.00,,---,0.00,VWS V14.00,2013-06-14 12:00:00,
2013-06-14 05:30:00,64.2,47.7,29.70,SSE,158,0.0,3.0,55,0.00,,---,0.00,VWS V14.00,2013-06-14 12:30:00,
2013-06-14 06:00:00,67.3,51.1,29.69,SSE,158,0.0,0.0,56,0.00,,---,0.00,VWS V14.00,2013-06-14 13:00:00,
2013-06-14 06:30:00,71.3,51.2,29.70,SSE,158,0.0,3.0,49,0.00,,---,0.00,VWS V14.00,2013-06-14 13:30:00,
2013-06-14 06:51:00,76.2,52.1,29.70,SSE,155,0.0,0.0,43,0.00,,---,0.00,VWS V14.00,2013-06-14 13:51:00,
2013-06-14 06:56:00,76.9,52.1,29.70,SSE,155,0.0,0.0,42,0.00,,---,0.00,VWS V14.00,2013-06-14 13:56:00,
2013-06-14 07:00:00,77.6,52.7,29.70,South,173,0.0,1.0,42,0.00,,---,0.00,VWS V14.00,2013-06-14 14:00:00,
2013-06-14 07:01:00,77.5,52.6,29.70,SSE,155,0.0,1.0,42,0.00,,---,0.00,VWS V14.00,2013-06-14 14:01:00,
2013-06-14 07:06:00,77.9,53.0,29.70,SSE,160,0.0,5.0,42,0.00,,---,0.00,VWS V14.00,2013-06-14 14:06:00,
2013-06-14 07:11:00,77.9,53.6,29.70,SSE,159,0.0,5.0,43,0.00,,---,0.00,VWS V14.00,2013-06-14 14:11:00,
2013-06-14 07:16:00,78.0,53.1,29.70,SSE,159,0.0,5.0,42,0.00,,---,0.00,VWS V14.00,2013-06-14 14:16:00,
2013-06-14 07:21:00,78.2,53.2,29.70,SSE,159,0.0,5.0,42,0.00,,---,0.00,VWS V14.00,2013-06-14 14:21:00,
2013-06-14 07:26:00,78.0,53.1,29.71,WNW,286,0.0,6.0,42,0.00,,---,0.00,VWS V14.00,2013-06-14 14:26:00,
2013-06-14 07:30:00,78.0,53.7,29.71,West,281,0.0,6.0,43,0.00,,---,0.00,VWS V14.00,2013-06-14 14:30:00,
2013-06-14 07:31:00,78.0,53.7,29.71,West,281,0.0,6.0,43,0.00,,---,0.00,VWS V14.00,2013-06-14 14:31:00,
2013-06-14 07:36:00,77.9,53.6,29.71,West,281,0.0,0.0,43,0.00,,---,0.00,VWS V14.00,2013-06-14 14:36:00,
2013-06-14 07:41:00,77.6,53.4,29.71,West,280,0.0,1.0,43,0.00,,---,0.00,VWS V14.00,2013-06-14 14:41:00,
2013-06-14 07:46:00,77.8,53.5,29.71,West,281,0.0,4.0,43,0.00,,---,0.00,VWS V14.00,2013-06-14 14:46:00,
2013-06-14 07:51:00,78.5,53.5,29.71,West,279,1.0,4.0,42,0.00,,---,0.00,VWS V14.00,2013-06-14 14:51:00,
2013-06-14 07:56:00,78.7,53.7,29.72,West,263,0.0,4.0,42,0.00,,---,0.00,VWS V14.00,2013-06-14 14:56:00,
2013-06-14 08:00:00,78.6,53.6,29.71,WSW,248,0.0,5.0,42,0.00,,---,0.00,VWS V14.00,2013-06-14 15:00:00,
2013-06-14 08:01:00,78.6,53.6,29.71,WSW,248,0.0,5.0,42,0.00,,---,0.00,VWS V14.00,2013-06-14 15:01:00,
2013-06-14 08:06:00,78.8,53.8,29.71,WSW,248,0.0,3.0,42,0.00,,---,0.00,VWS V14.00,2013-06-14 15:06:00,
2013-06-14 08:11:00,78.8,53.8,29.72,SW,230,0.0,6.0,42,0.00,,---,0.00,VWS V14.00,2013-06-14 15:11:00,
2013-06-14 08:16:00,79.1,53.4,29.72,WSW,244,1.0,6.0,41,0.00,,---,0.00,VWS V14.00,2013-06-14 15:16:00,
2013-06-14 08:21:00,79.2,53.5,29.72,West,277,7.0,10.0,41,0.00,,---,0.00,VWS V14.00,2013-06-14 15:21:00,
2013-06-14 08:26:00,79.4,53.0,29.71,West,265,5.0,11.0,40,0.00,,---,0.00,VWS V14.00,2013-06-14 15:26:00,
2013-06-14 08:30:00,79.7,52.6,29.72,WSW,252,0.0,11.0,39,0.00,,---,0.00,VWS V14.00,2013-06-14 15:30:00,
2013-06-14 08:31:00,79.7,52.6,29.71,WSW,252,0.0,11.0,39,0.00,,---,0.00,VWS V14.00,2013-06-14 15:31:00,
2013-06-14 08:36:00,80.0,53.5,29.71,WNW,302,0.0,6.0,40,0.00,,---,0.00,VWS V14.00,2013-06-14 15:36:00,
2013-06-14 08:41:00,80.2,53.0,29.71,West,270,6.0,11.0,39,0.00,,---,0.00,VWS V14.00,2013-06-14 15:41:00,
2013-06-14 08:46:00,80.5,52.6,29.71,West,274,3.0,11.0,38,0.00,,---,0.00,VWS V14.00,2013-06-14 15:46:00,
2013-06-14 08:51:00,80.7,52.8,29.71,SSW,213,0.0,11.0,38,0.00,,---,0.00,VWS V14.00,2013-06-14 15:51:00,
2013-06-14 08:56:00,80.8,52.1,29.71,NW,305,2.0,11.0,37,0.00,,---,0.00,VWS V14.00,2013-06-14 15:56:00,
2013-06-14 09:00:00,80.9,52.2,29.71,WNW,302,0.0,11.0,37,0.00,,---,0.00,VWS V14.00,2013-06-14 16:00:00,
2013-06-14 09:01:00,80.9,52.2,29.71,WNW,302,0.0,11.0,37,0.00,,---,0.00,VWS V14.00,2013-06-14 16:01:00,
2013-06-14 09:06:00,80.9,52.2,29.71,West,271,0.0,4.0,37,0.00,,---,0.00,VWS V14.00,2013-06-14 16:06:00,
2013-06-14 09:11:00,81.5,52.0,29.71,WNW,293,0.0,9.0,36,0.00,,---,0.00,VWS V14.00,2013-06-14 16:11:00,
2013-06-14 09:16:00,81.7,51.4,29.71,WSW,243,0.0,9.0,35,0.00,,---,0.00,VWS V14.00,2013-06-14 16:16:00,
2013-06-14 09:21:00,81.8,51.5,29.71,West,281,5.0,9.0,35,0.00,,---,0.00,VWS V14.00,2013-06-14 16:21:00,
2013-06-14 09:26:00,81.8,51.5,29.71,WNW,288,0.0,9.0,35,0.00,,---,0.00,VWS V14.00,2013-06-14 16:26:00,
2013-06-14 09:30:00,82.4,52.8,29.71,WSW,242,0.0,9.0,36,0.00,,---,0.00,VWS V14.00,2013-06-14 16:30:00,
2013-06-14 09:31:00,82.4,52.8,29.71,WSW,242,0.0,9.0,36,0.00,,---,0.00,VWS V14.00,2013-06-14 16:31:00,
2013-06-14 09:36:00,82.9,51.7,29.71,West,269,2.0,11.0,34,0.00,,---,0.00,VWS V14.00,2013-06-14 16:36:00,
2013-06-14 09:41:00,83.0,51.8,29.70,WNW,302,0.0,11.0,34,0.00,,---,0.00,VWS V14.00,2013-06-14 16:41:00,
2013-06-14 09:46:00,83.3,52.0,29.71,West,263,1.0,11.0,34,0.00,,---,0.00,VWS V14.00,2013-06-14 16:46:00,
2013-06-14 09:51:00,83.3,52.8,29.71,West,276,0.0,11.0,35,0.00,,---,0.00,VWS V14.00,2013-06-14 16:51:00,
2013-06-14 09:56:00,83.7,53.2,29.70,SW,216,0.0,11.0,35,0.00,,---,0.00,VWS V14.00,2013-06-14 16:56:00,
2013-06-14 10:00:00,83.4,52.1,29.70,West,277,0.0,11.0,34,0.00,,---,0.00,VWS V14.00,2013-06-14 17:00:00,
2013-06-14 10:01:00,83.4,52.1,29.70,West,277,0.0,11.0,34,0.00,,---,0.00,VWS V14.00,2013-06-14 17:01:00,
2013-06-14 10:06:00,83.6,52.3,29.70,SW,234,0.0,7.0,34,0.00,,---,0.00,VWS V14.00,2013-06-14 17:06:00,
2013-06-14 10:11:00,84.1,51.9,29.70,NW,315,0.0,10.0,33,0.00,,---,0.00,VWS V14.00,2013-06-14 17:11:00,
2013-06-14 10:16:00,84.7,51.6,29.70,NW,312,0.0,10.0,32,0.00,,---,0.00,VWS V14.00,2013-06-14 17:16:00,
2013-06-14 10:21:00,84.6,51.5,29.70,West,271,4.0,12.0,32,0.00,,---,0.00,VWS V14.00,2013-06-14 17:21:00,
2013-06-14 10:26:00,84.1,51.1,29.70,SSW,208,0.0,12.0,32,0.00,,---,0.00,VWS V14.00,2013-06-14 17:26:00,
2013-06-14 10:30:00,84.6,51.5,29.70,West,265,1.0,12.0,32,0.00,,---,0.00,VWS V14.00,2013-06-14 17:30:00,
2013-06-14 10:31:00,84.6,51.5,29.70,West,264,0.0,12.0,32,0.00,,---,0.00,VWS V14.00,2013-06-14 17:31:00,
2013-06-14 10:36:00,85.3,50.4,29.70,NW,304,11.0,13.0,30,0.00,,---,0.00,VWS V14.00,2013-06-14 17:36:00,
2013-06-14 10:41:00,85.4,50.5,29.70,WNW,291,3.0,13.0,30,0.00,,---,0.00,VWS V14.00,2013-06-14 17:41:00,
2013-06-14 10:46:00,85.5,50.6,29.70,NW,310,0.0,13.0,30,0.00,,---,0.00,VWS V14.00,2013-06-14 17:46:00,
2013-06-14 10:51:00,85.6,51.5,29.69,South,181,0.0,13.0,31,0.00,,---,0.00,VWS V14.00,2013-06-14 17:51:00,
2013-06-14 10:56:00,86.5,51.4,29.69,West,259,3.0,13.0,30,0.00,,---,0.00,VWS V14.00,2013-06-14 17:56:00,
2013-06-14 11:00:00,86.9,51.8,29.70,WNW,284,7.0,13.0,30,0.00,,---,0.00,VWS V14.00,2013-06-14 18:00:00,
2013-06-14 11:01:00,86.9,51.8,29.70,WNW,284,7.0,13.0,30,0.00,,---,0.00,VWS V14.00,2013-06-14 18:01:00,
2013-06-14 11:06:00,87.1,51.0,29.70,West,264,6.0,10.0,29,0.00,,---,0.00,VWS V14.00,2013-06-14 18:06:00,
2013-06-14 11:11:00,86.9,50.8,29.69,West,260,0.0,10.0,29,0.00,,---,0.00,VWS V14.00,2013-06-14 18:11:00,
2013-06-14 11:16:00,87.5,51.4,29.69,WSW,254,11.0,11.0,29,0.00,,---,0.00,VWS V14.00,2013-06-14 18:16:00,
2013-06-14 11:21:00,87.6,50.5,29.69,West,273,11.0,14.0,28,0.00,,---,0.00,VWS V14.00,2013-06-14 18:21:00,
2013-06-14 11:26:00,87.9,50.8,29.69,West,264,12.0,14.0,28,0.00,,---,0.00,VWS V14.00,2013-06-14 18:26:00,
2013-06-14 11:30:00,87.7,50.6,29.68,West,259,0.0,14.0,28,0.00,,---,0.00,VWS V14.00,2013-06-14 18:30:00,
2013-06-14 11:31:00,87.7,50.6,29.68,West,259,0.0,14.0,28,0.00,,---,0.00,VWS V14.00,2013-06-14 18:31:00,
2013-06-14 11:36:00,87.9,49.8,29.68,NW,318,4.0,12.0,27,0.00,,---,0.00,VWS V14.00,2013-06-14 18:36:00,
2013-06-14 11:41:00,87.9,49.8,29.68,SSW,202,0.0,12.0,27,0.00,,---,0.00,VWS V14.00,2013-06-14 18:41:00,
2013-06-14 11:47:00,88.4,50.2,29.68,West,266,0.0,14.0,27,0.00,,---,0.00,VWS V14.00,2013-06-14 18:47:00,
2013-06-14 11:52:00,88.3,49.1,29.67,WNW,292,10.0,15.0,26,0.00,,---,0.00,VWS V14.00,2013-06-14 18:52:00,
2013-06-14 11:57:00,88.4,48.1,29.67,WNW,300,0.0,15.0,25,0.00,,---,0.00,VWS V14.00,2013-06-14 18:57:00,
2013-06-14 12:00:00,88.7,49.5,29.67,WNW,286,0.0,15.0,26,0.00,,---,0.00,VWS V14.00,2013-06-14 19:00:00,
2013-06-14 12:02:00,88.6,49.4,29.67,WNW,286,3.0,3.0,26,0.00,,---,0.00,VWS V14.00,2013-06-14 19:02:00,
2013-06-14 12:07:00,88.7,47.3,29.67,WNW,295,4.0,10.0,24,0.00,,---,0.00,VWS V14.00,2013-06-14 19:07:00,
2013-06-14 12:12:00,88.6,47.2,29.67,West,265,7.0,10.0,24,0.00,,---,0.00,VWS V14.00,2013-06-14 19:12:00,
2013-06-14 12:17:00,88.8,47.4,29.67,West,270,9.0,14.0,24,0.00,,---,0.00,VWS V14.00,2013-06-14 19:17:00,
2013-06-14 12:22:00,88.9,47.5,29.67,WNW,290,0.0,15.0,24,0.00,,---,0.00,VWS V14.00,2013-06-14 19:22:00,
2013-06-14 12:27:00,89.0,48.7,29.67,SSE,148,3.0,15.0,25,0.00,,---,0.00,VWS V14.00,2013-06-14 19:27:00,
2013-06-14 12:30:00,89.2,48.8,29.66,SE,126,0.0,15.0,25,0.00,,---,0.00,VWS V14.00,2013-06-14 19:30:00,
2013-06-14 12:32:00,89.3,48.9,29.66,SE,126,0.0,0.0,25,0.00,,---,0.00,VWS V14.00,2013-06-14 19:32:00,
2013-06-14 12:37:00,90.3,48.7,29.66,West,260,7.0,11.0,24,0.00,,---,0.00,VWS V14.00,2013-06-14 19:37:00,
2013-06-14 12:42:00,91.3,45.9,29.66,SW,217,5.0,12.0,21,0.00,,---,0.00,VWS V14.00,2013-06-14 19:42:00,
2013-06-14 12:47:00,91.0,44.4,29.66,SSW,197,8.0,12.0,20,0.00,,---,0.00,VWS V14.00,2013-06-14 19:47:00,
2013-06-14 12:52:00,90.7,46.7,29.66,SW,216,13.0,14.0,22,0.00,,---,0.00,VWS V14.00,2013-06-14 19:52:00,
2013-06-14 12:57:00,90.6,45.4,29.65,WSW,239,9.0,14.0,21,0.00,,---,0.00,VWS V14.00,2013-06-14 19:57:00,
2013-06-14 13:00:00,90.5,45.3,29.65,West,259,6.0,14.0,21,0.00,,---,0.00,VWS V14.00,2013-06-14 20:00:00,
2013-06-14 13:02:00,90.6,45.4,29.65,West,259,0.0,9.0,21,0.00,,---,0.00,VWS V14.00,2013-06-14 20:02:00,
2013-06-14 13:07:00,90.5,46.5,29.65,SSE,161,0.0,14.0,22,0.00,,---,0.00,VWS V14.00,2013-06-14 20:07:00,
2013-06-14 13:12:00,90.7,47.8,29.65,WSW,252,7.0,14.0,23,0.00,,---,0.00,VWS V14.00,2013-06-14 20:12:00,
2013-06-14 13:17:00,91.4,47.2,29.65,West,280,3.0,15.0,22,0.00,,---,0.00,VWS V14.00,2013-06-14 20:17:00,
2013-06-14 13:22:00,91.7,47.5,29.64,WSW,240,9.0,15.0,22,0.00,,---,0.00,VWS V14.00,2013-06-14 20:22:00,
2013-06-14 13:27:00,91.6,47.4,29.64,WNW,289,11.0,16.0,22,0.00,,---,0.00,VWS V14.00,2013-06-14 20:27:00,
2013-06-14 13:30:00,91.8,46.3,29.64,WNW,292,0.0,16.0,21,0.00,,---,0.00,VWS V14.00,2013-06-14 20:30:00,
2013-06-14 13:32:00,91.9,47.7,29.64,NW,314,5.0,5.0,22,0.00,,---,0.00,VWS V14.00,2013-06-14 20:32:00,
2013-06-14 13:37:00,91.9,46.4,29.64,West,267,1.0,16.0,21,0.00,,---,0.00,VWS V14.00,2013-06-14 20:37:00,
2013-06-14 13:42:00,92.2,46.7,29.64,SW,219,10.0,16.0,21,0.00,,---,0.00,VWS V14.00,2013-06-14 20:42:00,
2013-06-14 13:47:00,92.2,46.7,29.63,WSW,248,0.0,16.0,21,0.00,,---,0.00,VWS V14.00,2013-06-14 20:47:00,
2013-06-14 13:52:00,92.3,45.5,29.63,SSW,198,4.0,16.0,20,0.00,,---,0.00,VWS V14.00,2013-06-14 20:52:00,
2013-06-14 13:57:00,92.5,45.6,29.63,SW,235,3.0,16.0,20,0.00,,---,0.00,VWS V14.00,2013-06-14 20:57:00,
2013-06-14 14:00:00,92.8,45.9,29.63,WNW,300,0.0,24.0,20,0.00,,---,0.00,VWS V14.00,2013-06-14 21:00:00,
2013-06-14 14:02:00,92.9,46.0,29.63,West,265,3.0,5.0,20,0.00,,---,0.00,VWS V14.00,2013-06-14 21:02:00,
2013-06-14 14:07:00,93.1,48.7,29.62,West,269,8.0,17.0,22,0.00,,---,0.00,VWS V14.00,2013-06-14 21:07:00,
2013-06-14 14:12:00,92.9,47.2,29.62,West,274,10.0,17.0,21,0.00,,---,0.00,VWS V14.00,2013-06-14 21:12:00,
2013-06-14 14:17:00,92.9,47.2,29.62,West,260,10.0,17.0,21,0.00,,---,0.00,VWS V14.00,2013-06-14 21:17:00,
2013-06-14 14:22:00,93.4,46.4,29.62,SW,224,1.0,17.0,20,0.00,,---,0.00,VWS V14.00,2013-06-14 21:22:00,
2013-06-14 14:28:00,93.4,46.4,29.61,NW,316,8.0,17.0,20,0.00,,---,0.00,VWS V14.00,2013-06-14 21:28:00,
2013-06-14 14:30:00,92.1,46.6,29.61,West,277,7.0,17.0,21,0.00,,---,0.00,VWS V14.00,2013-06-14 21:30:00,
2013-06-14 14:33:00,91.7,46.3,29.61,West,277,5.0,15.0,21,0.00,,---,0.00,VWS V14.00,2013-06-14 21:33:00,
2013-06-14 14:38:00,91.0,46.9,29.61,WSW,246,6.0,15.0,22,0.00,,---,0.00,VWS V14.00,2013-06-14 21:38:00,
2013-06-14 14:43:00,90.9,46.8,29.61,West,266,6.0,17.0,22,0.00,,---,0.00,VWS V14.00,2013-06-14 21:43:00,
2013-06-14 14:48:00,90.6,45.4,29.61,SW,219,3.0,17.0,21,0.00,,---,0.00,VWS V14.00,2013-06-14 21:48:00,
2013-06-14 14:53:00,90.3,46.3,29.61,SW,223,4.0,17.0,22,0.00,,---,0.00,VWS V14.00,2013-06-14 21:53:00,
2013-06-14 14:58:00,89.8,45.9,29.61,SW,223,0.0,17.0,22,0.00,,---,0.00,VWS V14.00,2013-06-14 21:58:00,
2013-06-14 15:00:00,89.6,45.8,29.61,SW,221,0.0,17.0,22,0.00,,---,0.00,VWS V14.00,2013-06-14 22:00:00,
2013-06-14 15:03:00,89.6,46.9,29.61,WSW,249,7.0,8.0,23,0.00,,---,0.00,VWS V14.00,2013-06-14 22:03:00,
2013-06-14 15:08:00,89.5,46.8,29.62,WSW,244,5.0,13.0,23,0.00,,---,0.00,VWS V14.00,2013-06-14 22:08:00,
2013-06-14 15:13:00,89.4,46.8,29.61,WSW,256,9.0,13.0,23,0.00,,---,0.00,VWS V14.00,2013-06-14 22:13:00,
2013-06-14 15:18:00,89.2,46.6,29.61,WSW,246,0.0,13.0,23,0.00,,---,0.00,VWS V14.00,2013-06-14 22:18:00,
2013-06-14 15:23:00,89.1,46.5,29.61,SSW,211,10.0,15.0,23,0.00,,---,0.00,VWS V14.00,2013-06-14 22:23:00,
2013-06-14 15:28:00,87.9,51.7,29.61,WSW,246,4.0,19.0,29,0.00,,---,0.00,VWS V14.00,2013-06-14 22:28:00,
2013-06-14 15:30:00,86.4,50.4,29.61,SW,226,6.0,19.0,29,0.00,,---,0.00,VWS V14.00,2013-06-14 22:30:00,
2013-06-14 15:33:00,86.0,51.0,29.61,SW,232,10.0,17.0,30,0.00,,---,0.00,VWS V14.00,2013-06-14 22:33:00,
2013-06-14 15:38:00,85.2,50.3,29.60,WSW,240,0.0,17.0,30,0.00,,---,0.00,VWS V14.00,2013-06-14 22:38:00,
2013-06-14 15:43:00,85.0,50.1,29.60,SW,231,1.0,17.0,30,0.00,,---,0.00,VWS V14.00,2013-06-14 22:43:00,
2013-06-14 15:48:00,84.5,48.8,29.61,SW,230,9.0,17.0,29,0.00,,---,0.00,VWS V14.00,2013-06-14 22:48:00,
2013-06-14 15:53:00,84.2,48.5,29.61,South,185,0.0,17.0,29,0.00,,---,0.00,VWS V14.00,2013-06-14 22:53:00,
2013-06-14 15:58:00,83.8,49.1,29.60,SE,133,9.0,17.0,30,0.00,,---,0.00,VWS V14.00,2013-06-14 22:58:00,
2013-06-14 16:00:00,83.6,48.0,29.60,SW,222,1.0,17.0,29,0.00,,---,0.00,VWS V14.00,2013-06-14 23:00:00,
2013-06-14 16:03:00,83.5,47.9,29.60,SSE,167,0.0,7.0,29,0.00,,---,0.00,VWS V14.00,2013-06-14 23:03:00,
2013-06-14 16:08:00,83.3,48.7,29.60,SE,133,0.0,7.0,30,0.00,,---,0.00,VWS V14.00,2013-06-14 23:08:00,
2013-06-14 16:13:00,83.2,48.6,29.60,ESE,111,0.0,7.0,30,0.00,,---,0.00,VWS V14.00,2013-06-14 23:13:00,
2013-06-14 16:18:00,83.3,48.7,29.60,SSW,202,0.0,7.0,30,0.00,,---,0.00,VWS V14.00,2013-06-14 23:18:00,
2013-06-14 16:23:00,83.4,48.8,29.60,ENE,57,0.0,7.0,30,0.00,,---,0.00,VWS V14.00,2013-06-14 23:23:00,
2013-06-14 16:29:00,83.5,48.8,29.60,ENE,57,0.0,7.0,30,0.00,,---,0.00,VWS V14.00,2013-06-14 23:29:00,
2013-06-14 16:30:00,83.5,48.8,29.60,NE,55,0.0,7.0,30,0.00,,---,0.00,VWS V14.00,2013-06-14 23:30:00,
2013-06-14 16:34:00,83.6,48.9,29.60,NE,55,0.0,0.0,30,0.00,,---,0.00,VWS V14.00,2013-06-14 23:34:00,
2013-06-14 16:39:00,83.6,48.9,29.60,NE,55,0.0,0.0,30,0.00,,---,0.00,VWS V14.00,2013-06-14 23:39:00,
2013-06-14 16:44:00,83.6,48.0,29.61,ESE,117,0.0,0.0,29,0.00,,---,0.00,VWS V14.00,2013-06-14 23:44:00,
2013-06-14 16:49:00,83.5,47.0,29.62,SSE,153,0.0,2.0,28,0.00,,---,0.00,VWS V14.00,2013-06-14 23:49:00,
2013-06-14 16:54:00,83.4,45.0,29.62,ESE,115,5.0,6.0,26,0.00,,---,0.00,VWS V14.00,2013-06-14 23:54:00,
2013-06-14 16:59:00,83.2,44.8,29.61,SE,129,4.0,6.0,26,0.00,,---,0.00,VWS V14.00,2013-06-14 23:59:00,
2013-06-14 17:00:00,83.0,44.6,29.61,SE,125,1.0,9.0,26,0.00,,---,0.00,VWS V14.00,2013-06-15 00:00:00,
2013-06-14 17:04:00,82.8,44.5,29.61,ESE,119,2.0,4.0,26,0.00,,---,0.00,VWS V14.00,2013-06-15 00:04:00,
2013-06-14 17:09:00,82.5,44.2,29.61,SE,134,0.0,5.0,26,0.00,,---,0.00,VWS V14.00,2013-06-15 00:09:00,
2013-06-14 17:14:00,82.4,44.1,29.62,SE,134,0.0,5.0,26,0.00,,---,0.00,VWS V14.00,2013-06-15 00:14:00,
2013-06-14 17:19:00,82.4,44.1,29.61,SE,132,0.0,5.0,26,0.00,,---,0.00,VWS V14.00,2013-06-15 00:19:00,
2013-06-14 17:24:00,82.7,43.3,29.62,SE,139,0.0,6.0,25,0.00,,---,0.00,VWS V14.00,2013-06-15 00:24:00,
2013-06-14 17:29:00,83.0,41.4,29.61,SE,141,0.0,6.0,23,0.00,,---,0.00,VWS V14.00,2013-06-15 00:29:00,
2013-06-14 17:30:00,83.2,41.6,29.61,SSE,155,0.0,6.0,23,0.00,,---,0.00,VWS V14.00,2013-06-15 00:30:00,
2013-06-14 17:34:00,83.5,40.7,29.61,SE,136,0.0,9.0,22,0.00,,---,0.00,VWS V14.00,2013-06-15 00:34:00,
2013-06-14 17:39:00,84.2,41.3,29.60,SSE,150,10.0,10.0,22,0.00,,---,0.00,VWS V14.00,2013-06-15 00:39:00,
2013-06-14 17:44:00,84.6,41.6,29.59,SSE,153,13.0,13.0,22,0.00,,---,0.00,VWS V14.00,2013-06-15 00:44:00,
2013-06-14 17:49:00,85.1,40.8,29.60,SE,128,5.0,13.0,21,0.00,,---,0.00,VWS V14.00,2013-06-15 00:49:00,
2013-06-14 17:54:00,85.4,41.1,29.60,SSE,155,0.0,13.0,21,0.00,,---,0.00,VWS V14.00,2013-06-15 00:54:00,
2013-06-14 17:59:00,85.5,41.2,29.60,SSE,165,0.0,13.0,21,0.00,,---,0.00,VWS V14.00,2013-06-15 00:59:00,
2013-06-14 18:00:00,85.6,41.2,29.60,SSE,160,0.0,13.0,21,0.00,,---,0.00,VWS V14.00,2013-06-15 01:00:00,
2013-06-14 18:05:00,85.5,41.2,29.60,SE,144,0.0,9.0,21,0.00,,---,0.00,VWS V14.00,2013-06-15 01:05:00,
2013-06-14 18:10:00,85.6,41.2,29.60,SE,132,0.0,9.0,21,0.00,,---,0.00,VWS V14.00,2013-06-15 01:10:00,
2013-06-14 18:15:00,85.9,41.5,29.60,SSE,158,0.0,9.0,21,0.00,,---,0.00,VWS V14.00,2013-06-15 01:15:00,
2013-06-14 18:20:00,86.0,41.6,29.60,SW,215,1.0,9.0,21,0.00,,---,0.00,VWS V14.00,2013-06-15 01:20:00,
2013-06-14 18:25:00,85.6,42.4,29.61,West,261,0.0,12.0,22,0.00,,---,0.00,VWS V14.00,2013-06-15 01:25:00,
2013-06-14 18:30:00,85.1,42.0,29.61,WSW,252,0.0,12.0,22,0.00,,---,0.00,VWS V14.00,2013-06-15 01:30:00,
2013-06-14 18:35:00,84.7,41.7,29.61,WSW,258,0.0,10.0,22,0.00,,---,0.00,VWS V14.00,2013-06-15 01:35:00,
2013-06-14 18:40:00,84.3,42.5,29.62,West,259,0.0,10.0,23,0.00,,---,0.00,VWS V14.00,2013-06-15 01:40:00,
2013-06-14 18:45:00,84.1,42.3,29.63,SW,236,0.0,10.0,23,0.00,,---,0.00,VWS V14.00,2013-06-15 01:45:00,
2013-06-14 18:50:00,84.0,42.3,29.63,SSW,209,6.0,10.0,23,0.00,,---,0.00,VWS V14.00,2013-06-15 01:50:00,
2013-06-14 18:55:00,83.9,42.2,29.63,ESE,123,0.0,10.0,23,0.00,,---,0.00,VWS V14.00,2013-06-15 01:55:00,
2013-06-14 19:00:00,83.8,43.2,29.63,SSE,152,6.0,10.0,24,0.00,,---,0.00,VWS V14.00,2013-06-15 02:00:00,
2013-06-14 19:05:00,83.4,43.9,29.63,SSE,150,0.0,7.0,25,0.00,,---,0.00,VWS V14.00,2013-06-15 02:05:00,
2013-06-14 19:10:00,83.1,43.7,29.64,SSE,155,7.0,8.0,25,0.00,,---,0.00,VWS V14.00,2013-06-15 02:10:00,
2013-06-14 19:15:00,82.8,45.4,29.64,SSE,162,0.0,8.0,27,0.00,,---,0.00,VWS V14.00,2013-06-15 02:15:00,
2013-06-14 19:27:00,81.8,46.5,29.65,SE,133,0.0,8.0,29,0.00,,---,0.00,VWS V14.00,2013-06-15 02:27:00,
2013-06-14 19:30:00,81.5,48.0,29.65,SSE,160,0.0,8.0,31,0.00,,---,0.00,VWS V14.00,2013-06-15 02:30:00,
2013-06-14 19:32:00,81.5,48.0,29.65,South,170,0.0,4.0,31,0.00,,---,0.00,VWS V14.00,2013-06-15 02:32:00,
2013-06-14 19:37:00,81.2,49.4,29.65,SSE,154,0.0,4.0,33,0.00,,---,0.00,VWS V14.00,2013-06-15 02:37:00,
2013-06-14 19:42:00,80.9,49.1,29.65,SSE,153,0.0,4.0,33,0.00,,---,0.00,VWS V14.00,2013-06-15 02:42:00,
2013-06-14 19:47:00,80.6,48.0,29.65,SE,143,0.0,4.0,32,0.00,,---,0.00,VWS V14.00,2013-06-15 02:47:00,
2013-06-14 19:52:00,80.1,47.6,29.66,SE,137,0.0,4.0,32,0.00,,---,0.00,VWS V14.00,2013-06-15 02:52:00,
2013-06-14 19:57:00,79.6,47.2,29.65,SSE,150,0.0,5.0,32,0.00,,---,0.00,VWS V14.00,2013-06-15 02:57:00,
2013-06-14 20:00:00,79.3,46.9,29.65,SE,132,0.0,5.0,32,0.00,,---,0.00,VWS V14.00,2013-06-15 03:00:00,
2013-06-14 20:02:00,79.2,47.7,29.65,SE,136,0.0,2.0,33,0.00,,---,0.00,VWS V14.00,2013-06-15 03:02:00,
2013-06-14 20:07:00,78.7,47.2,29.66,SSE,161,4.0,5.0,33,0.00,,---,0.00,VWS V14.00,2013-06-15 03:07:00,
2013-06-14 20:12:00,78.4,47.7,29.66,SSE,163,7.0,11.0,34,0.00,,---,0.00,VWS V14.00,2013-06-15 03:12:00,
2013-06-14 20:17:00,78.2,47.6,29.66,SSE,156,0.0,11.0,34,0.00,,---,0.00,VWS V14.00,2013-06-15 03:17:00,
2013-06-14 20:22:00,77.9,47.3,29.66,SSE,156,0.0,11.0,34,0.00,,---,0.00,VWS V14.00,2013-06-15 03:22:00,
2013-06-14 20:28:00,77.3,47.5,29.66,SSE,155,0.0,11.0,35,0.00,,---,0.00,VWS V14.00,2013-06-15 03:28:00,
2013-06-14 20:30:00,76.7,47.0,29.67,SSE,155,0.0,11.0,35,0.00,,---,0.00,VWS V14.00,2013-06-15 03:30:00,
2013-06-14 20:33:00,76.5,46.8,29.66,SSE,155,0.0,0.0,35,0.00,,---,0.00,VWS V14.00,2013-06-15 03:33:00,
2013-06-14 20:38:00,75.8,47.0,29.66,SSE,155,0.0,0.0,36,0.00,,---,0.00,VWS V14.00,2013-06-15 03:38:00,
2013-06-14 20:43:00,75.2,47.2,29.66,SSE,155,0.0,0.0,37,0.00,,---,0.00,VWS V14.00,2013-06-15 03:43:00,
2013-06-14 20:48:00,74.8,46.8,29.66,SSE,155,0.0,0.0,37,0.00,,---,0.00,VWS V14.00,2013-06-15 03:48:00,
2013-06-14 20:53:00,74.4,46.5,29.67,SSE,155,0.0,0.0,37,0.00,,---,0.00,VWS V14.00,2013-06-15 03:53:00,
2013-06-14 20:58:00,74.0,46.8,29.67,SSE,155,0.0,0.0,38,0.00,,---,0.00,VWS V14.00,2013-06-15 03:58:00,
2013-06-14 21:00:00,74.2,47.0,29.67,ESE,107,0.0,0.0,38,0.00,,---,0.00,VWS V14.00,2013-06-15 04:00:00,
2013-06-14 21:01:00,74.0,46.8,29.67,SE,126,0.0,0.0,38,0.00,,---,0.00,VWS V14.00,2013-06-15 04:01:00,
2013-06-14 21:06:00,75.1,46.3,29.66,East,101,0.0,0.0,36,0.00,,---,0.00,VWS V14.00,2013-06-15 04:06:00,
2013-06-14 21:12:00,76.1,46.5,29.66,ESE,108,0.0,2.0,35,0.00,,---,0.00,VWS V14.00,2013-06-15 04:12:00,
2013-06-14 21:17:00,76.7,46.2,29.67,ESE,108,0.0,2.0,34,0.00,,---,0.00,VWS V14.00,2013-06-15 04:17:00,
2013-06-14 21:22:00,77.0,46.5,29.67,ESE,108,0.0,2.0,34,0.00,,---,0.00,VWS V14.00,2013-06-15 04:22:00,
2013-06-14 21:27:00,77.3,46.0,29.67,ESE,108,0.0,2.0,33,0.00,,---,0.00,VWS V14.00,2013-06-15 04:27:00,
2013-06-14 21:30:00,77.3,46.0,29.67,ESE,108,0.0,2.0,33,0.00,,---,0.00,VWS V14.00,2013-06-15 04:30:00,
2013-06-14 21:32:00,77.3,46.8,29.67,ESE,108,0.0,0.0,34,0.00,,---,0.00,VWS V14.00,2013-06-15 04:32:00,
2013-06-14 21:37:00,77.3,46.8,29.67,ESE,107,0.0,0.0,34,0.00,,---,0.00,VWS V14.00,2013-06-15 04:37:00,
2013-06-14 21:42:00,77.1,47.4,29.67,ESE,107,0.0,0.0,35,0.00,,---,0.00,VWS V14.00,2013-06-15 04:42:00,
2013-06-14 21:47:00,76.7,47.0,29.67,ESE,107,0.0,0.0,35,0.00,,---,0.00,VWS V14.00,2013-06-15 04:47:00,
2013-06-14 21:52:00,76.4,46.8,29.68,ESE,107,0.0,0.0,35,0.00,,---,0.00,VWS V14.00,2013-06-15 04:52:00,
2013-06-14 21:57:00,76.0,47.2,29.68,ESE,107,0.0,0.0,36,0.00,,---,0.00,VWS V14.00,2013-06-15 04:57:00,
2013-06-14 22:00:00,75.3,47.3,29.68,ESE,107,0.0,0.0,37,0.00,,---,0.00,VWS V14.00,2013-06-15 05:00:00,
2013-06-14 22:02:00,75.2,46.4,29.68,ESE,107,0.0,0.0,36,0.00,,---,0.00,VWS V14.00,2013-06-15 05:02:00,
2013-06-14 22:07:00,74.6,47.3,29.68,ESE,107,0.0,0.0,38,0.00,,---,0.00,VWS V14.00,2013-06-15 05:07:00,
2013-06-14 22:12:00,74.1,46.2,29.67,ESE,107,0.0,0.0,37,0.00,,---,0.00,VWS V14.00,2013-06-15 05:12:00,
2013-06-14 22:17:00,72.6,45.6,29.67,ESE,107,0.0,0.0,38,0.00,,---,0.00,VWS V14.00,2013-06-15 05:17:00,
2013-06-14 22:22:00,71.8,46.9,29.67,ESE,107,0.0,0.0,41,0.00,,---,0.00,VWS V14.00,2013-06-15 05:22:00,
2013-06-14 22:27:00,71.8,46.9,29.67,ESE,107,0.0,0.0,41,0.00,,---,0.00,VWS V14.00,2013-06-15 05:27:00,
2013-06-14 22:30:00,71.8,46.9,29.68,ESE,107,0.0,0.0,41,0.00,,---,0.00,VWS V14.00,2013-06-15 05:30:00,
2013-06-14 22:32:00,71.8,46.9,29.68,ESE,107,0.0,0.0,41,0.00,,---,0.00,VWS V14.00,2013-06-15 05:32:00,
2013-06-14 22:37:00,71.9,47.0,29.68,ESE,107,0.0,0.0,41,0.00,,---,0.00,VWS V14.00,2013-06-15 05:37:00,
2013-06-14 23:00:00,72.1,47.1,29.69,North,0,0.0,0.0,41,0.00,,---,0.00,VWS V14.00,2013-06-15 06:00:00,
2013-06-14 23:30:00,72.8,47.1,29.69,North,0,0.0,0.0,40,0.00,,---,0.00,VWS V14.00,2013-06-15 06:30:00,